• Join FlightAware (Why Join?)
  • Login
  • US Flag 
05:06AM EDT


 

Airport Tracker/Info


-or-


 

Live Flight TrackerFlight Track Log ✈ N20WL ✈ 23-Jun-2013 ✈ KTHA - KMOR

Flight Track Log - Related Links

Times and Time Zones

All times are in EDT time to prevent confusion due to time zone crossing. See the N20WL flight status page for this flight to view local times or setup timezone preferences in your user account.

Time Position Orientation Groundspeed Altitude Reporting Facility
EDT Latitude Longitude Course Direction KTS MPH feet Rate Location/Type
10:05PM 35.3500 -86.2433 68° East 249 287 4,600  Level Memphis Center
10:06PM 35.3667 -86.1789 72° East 197 227 7,200 2,400 Climbing Memphis Center
10:07PM 35.3817 -86.1272 70° East 176 203 9,500 2,100 Climbing Memphis Center
10:08PM 35.3986 -86.0753 68° East 165 190 11,400 1,800 Climbing Memphis Center
10:09PM 35.4131 -86.0161 73° East 172 198 13,200 1,560 Climbing Memphis Center
10:10PM 35.4717 -85.8850 68° East  Level FlightAware Approximate
10:10PM 35.4372 -85.9022 75° East 187 215 15,900  Level Atlanta Center
10:11PM 35.4547 -85.8361 72° East 192 221 17,000 480 Climbing Atlanta Center
10:12PM 35.4706 -85.7575 76° East 212 244 16,900 -60 Descending Atlanta Center
10:13PM 35.4883 -85.6711 76° East 242 278 16,900  Level Atlanta Center
10:14PM 35.5106 -85.5822 73° East 254 292 16,900  Level Atlanta Center
10:15PM 35.5303 -85.4958 74° East 260 299 16,900  Level Atlanta Center
10:16PM 35.5522 -85.4069 73° East 260 299 17,000  Climbing Atlanta Center
10:17PM 35.5678 -85.3203 78° East 260 299 17,000 -60 Level Atlanta Center
10:18PM 35.5853 -85.2339 76° East 260 299 16,900 -240 Descending Atlanta Center
10:19PM 35.6069 -85.1447 73° East 260 299 16,600 -420 Descending Atlanta Center
10:20PM 35.6306 -85.0531 72° East 260 299 16,100 -540 Descending Atlanta Center
10:21PM 35.6503 -84.9589 76° East 271 312 15,600 -600 Descending Atlanta Center
10:22PM 35.6781 -84.8697 69° East 277 319 15,000 -600 Descending Atlanta Center
10:23PM 35.7119 -84.7831 64° Northeast 282 325 14,400 -720 Descending Atlanta Center
10:24PM 35.7458 -84.6911 66° East 282 325 13,600 -900 Descending Atlanta Center
10:25PM 35.7794 -84.6044 64° Northeast 287 330 12,700 -900 Descending Atlanta Center
10:26PM 35.8111 -84.5175 66° East 282 325 11,900 -900 Descending Atlanta Center
10:27PM 35.8386 -84.4358 67° East 277 319 11,000 -840 Descending Atlanta Center
10:28PM 35.8681 -84.3489 67° East 277 319 10,300 -780 Descending Atlanta Center
10:29PM 35.8953 -84.2617 69° East 271 312 9,500 -720 Descending Atlanta Center
10:30PM 35.9247 -84.1772 67° East 271 312 8,900 -600 Descending Atlanta Center
10:31PM 35.9519 -84.0953 68° East 271 312 8,300 -600 Descending Atlanta Center
10:33PM 35.9760 -84.0147 70° East  Level FlightAware Approximate
10:40PM 36.1276 -83.5006 70° East  Level FlightAware Approximate
10:41PM 36.1491 -83.4270 70° East  Level FlightAware Approximate